Time;durP1;ratioP1;P1;durP2;ratioP2;P2;SDS_P1;SDS_P2;PMS_P1;PMS_P2;Temp;Humidity;BMP_temperature;BMP_pressure;BME280_temperature;BME280_humidity;BME280_pressure;Samples;Min_cycle;Max_cycle;Signal;HPM_P1;HPM_P2
2024/04/20 00:01:42;;;;;;;2.80;2.60;;;;;;;6.35;100.00;99670.09;5404566;26;20354;-70
2024/04/20 00:04:11;;;;;;;3.67;3.00;;;;;;;6.36;100.00;99671.63;5404198;26;20366;-70
2024/04/20 00:06:39;;;;;;;3.83;2.80;;;;;;;6.37;100.00;99675.03;5405964;26;20560;-70
2024/04/20 00:09:07;;;;;;;3.93;3.00;;;;;;;6.38;100.00;99684.44;5400481;26;20292;-71
2024/04/20 00:11:37;;;;;;;4.93;3.40;;;;;;;6.34;100.00;99684.31;5402715;26;20304;-70
2024/04/20 00:14:05;;;;;;;4.97;3.50;;;;;;;6.35;100.00;99683.22;5416219;26;20621;-70
2024/04/20 00:16:33;;;;;;;4.13;3.03;;;;;;;6.35;100.00;99683.22;5402868;26;20835;-70
2024/04/20 00:19:01;;;;;;;5.50;3.10;;;;;;;6.35;100.00;99688.47;5409204;26;20315;-71
2024/04/20 00:21:29;;;;;;;3.80;3.20;;;;;;;6.34;100.00;99689.56;5406770;26;20560;-70
2024/04/20 00:23:57;;;;;;;3.77;3.10;;;;;;;6.36;100.00;99694.47;5405245;26;20914;-70
2024/04/20 00:26:25;;;;;;;5.77;3.67;;;;;;;6.35;100.00;99695.53;5410418;26;20872;-70
2024/04/20 00:28:56;;;;;;;3.90;3.50;;;;;;;6.36;100.00;99697.06;5408731;26;20295;-70
2024/04/20 00:31:24;;;;;;;4.47;3.20;;;;;;;6.36;100.00;99691.84;5406474;26;20318;-71
2024/04/20 00:33:52;;;;;;;3.73;3.40;;;;;;;6.34;100.00;99700.03;5403287;26;20245;-71
2024/04/20 00:36:20;;;;;;;4.37;3.33;;;;;;;6.33;100.00;99695.84;5409064;26;20241;-71
2024/04/20 00:38:48;;;;;;;4.83;3.27;;;;;;;6.32;100.00;99704.81;5406142;26;20877;-70
2024/04/20 00:41:16;;;;;;;6.93;4.37;;;;;;;6.31;100.00;99703.28;5404914;26;20358;-70
2024/04/20 00:43:44;;;;;;;4.37;3.50;;;;;;;6.29;100.00;99708.09;5401637;26;20324;-70
2024/04/20 00:46:17;;;;;;;5.50;4.33;;;;;;;6.26;100.00;99708.72;5407705;26;20307;-70
2024/04/20 00:48:45;;;;;;;6.17;4.20;;;;;;;6.25;100.00;99712.44;5406793;26;20244;-70
2024/04/20 00:51:13;;;;;;;7.43;3.90;;;;;;;6.25;100.00;99709.81;5402136;26;20313;-70
2024/04/20 00:53:42;;;;;;;5.50;3.90;;;;;;;6.24;100.00;99720.59;5407114;26;20827;-71
2024/04/20 00:56:11;;;;;;;4.97;3.70;;;;;;;6.23;100.00;99716.44;5405296;26;20341;-72
2024/04/20 00:58:40;;;;;;;4.97;3.97;;;;;;;6.23;100.00;99727.72;5405125;26;20606;-71
2024/04/20 01:01:08;;;;;;;5.13;3.87;;;;;;;6.22;100.00;99728.78;5396542;26;20295;-70
2024/04/20 01:03:38;;;;;;;6.17;4.57;;;;;;;6.23;100.00;99727.72;5397480;26;20264;-70
2024/04/20 01:06:07;;;;;;;4.67;4.13;;;;;;;6.23;100.00;99732.97;5409023;26;20351;-70
2024/04/20 01:08:36;;;;;;;4.83;3.63;;;;;;;6.24;100.00;99723.22;5405465;26;20291;-70
2024/04/20 01:11:04;;;;;;;5.43;4.40;;;;;;;6.22;100.00;99731.41;5406391;26;20237;-70
2024/04/20 01:13:32;;;;;;;6.30;4.07;;;;;;;6.23;100.00;99729.56;5405910;26;20375;-70
2024/04/20 01:16:00;;;;;;;8.73;4.43;;;;;;;6.23;100.00;99734.78;5403716;26;20309;-70
2024/04/20 01:18:28;;;;;;;8.20;4.17;;;;;;;6.23;100.00;99740.03;5408526;26;20249;-70
2024/04/20 01:20:59;;;;;;;6.03;4.07;;;;;;;6.24;100.00;99741.56;5398529;26;20245;-70
2024/04/20 01:23:27;;;;;;;4.77;4.10;;;;;;;6.26;100.00;99742.03;5407935;26;20241;-70
2024/04/20 01:25:57;;;;;;;7.83;4.30;;;;;;;6.25;100.00;99743.88;5401173;26;20244;-70
2024/04/20 01:28:25;;;;;;;8.07;4.50;;;;;;;6.24;100.00;99744.97;5402574;26;20378;-72
2024/04/20 01:30:53;;;;;;;7.70;4.57;;;;;;;6.26;100.00;99750.66;5376875;26;20296;-71
2024/04/20 01:33:21;;;;;;;8.50;4.50;;;;;;;6.27;100.00;99748.81;5403888;26;20328;-71
2024/04/20 01:35:50;;;;;;;6.33;5.00;;;;;;;6.28;100.00;99755.59;5406872;26;20295;-71
2024/04/20 01:38:18;;;;;;;6.83;5.20;;;;;;;6.27;100.00;99762.66;5403698;26;20489;-71
2024/04/20 01:40:46;;;;;;;6.80;4.30;;;;;;;6.29;100.00;99768.38;5404002;26;20260;-70
2024/04/20 01:43:17;;;;;;;6.17;4.07;;;;;;;6.31;100.00;99763.59;5407361;26;20304;-70
2024/04/20 01:45:45;;;;;;;4.93;4.43;;;;;;;6.31;100.00;99762.84;5405917;26;20412;-70
2024/04/20 01:48:13;;;;;;;6.67;5.10;;;;;;;6.32;100.00;99759.88;5405682;26;20576;-70
2024/04/20 01:50:39;;;;;;;4.70;4.20;;;;;;;6.32;100.00;99772.97;5403376;26;20787;-71
2024/04/20 01:53:07;;;;;;;6.83;4.30;;;;;;;6.33;100.00;99771.88;5408834;26;20240;-70
2024/04/20 01:55:35;;;;;;;6.67;4.43;;;;;;;6.32;100.00;99772.97;5403286;26;20241;-70
2024/04/20 01:58:03;;;;;;;5.90;4.17;;;;;;;6.33;100.00;99776.38;5407067;26;20346;-71
2024/04/20 02:00:33;;;;;;;5.43;4.53;;;;;;;6.32;100.00;99780.09;5405345;26;20277;-71
2024/04/20 02:03:01;;;;;;;5.87;4.20;;;;;;;6.32;100.00;99775.59;5406650;26;20237;-70
2024/04/20 02:05:29;;;;;;;9.03;4.73;;;;;;;6.30;100.00;99784.88;5378443;26;20244;-70
2024/04/20 02:07:58;;;;;;;6.73;4.27;;;;;;;6.33;100.00;99786.88;5408026;26;20848;-70
2024/04/20 02:10:26;;;;;;;10.00;4.87;;;;;;;6.31;100.00;99795.03;5403182;26;20225;-70
2024/04/20 02:12:54;;;;;;;7.67;4.43;;;;;;;6.30;100.00;99790.88;5407785;26;20297;-70
2024/04/20 02:15:21;;;;;;;5.37;4.40;;;;;;;6.30;100.00;99790.88;5403548;26;20234;-70
2024/04/20 02:17:52;;;;;;;5.70;3.97;;;;;;;6.28;100.00;99803.56;5399420;26;20240;-70
2024/04/20 02:20:20;;;;;;;6.77;4.20;;;;;;;6.30;100.00;99800.59;5405526;26;20584;-70
2024/04/20 02:22:49;;;;;;;6.07;4.33;;;;;;;6.28;100.00;99797.53;5399760;26;20248;-70
2024/04/20 02:25:17;;;;;;;6.97;4.43;;;;;;;6.30;100.00;99803.22;5399934;26;20359;-70
2024/04/20 02:27:48;;;;;;;5.73;4.40;;;;;;;6.29;100.00;99807.72;5406134;26;20851;-71
2024/04/20 02:30:16;;;;;;;7.97;4.93;;;;;;;6.30;100.00;99809.25;5401901;26;20709;-71
2024/04/20 02:32:44;;;;;;;7.90;4.87;;;;;;;6.32;100.00;99806.31;5405689;26;20383;-72
2024/04/20 02:35:14;;;;;;;6.13;4.20;;;;;;;6.32;100.00;99811.56;5406960;26;20244;-70
2024/04/20 02:37:42;;;;;;;7.03;4.43;;;;;;;6.33;100.00;99813.09;5403799;26;20336;-70
2024/04/20 02:40:11;;;;;;;5.93;4.53;;;;;;;6.34;100.00;99817.25;5383879;26;20344;-71
2024/04/20 02:42:39;;;;;;;5.80;4.07;;;;;;;6.35;100.00;99814.31;5397396;26;20851;-70
2024/04/20 02:45:17;;;;;;;6.57;4.23;;;;;;;6.34;100.00;99819.88;5406748;26;20356;-70
2024/04/20 02:47:45;;;;;;;5.07;4.10;;;;;;;6.36;100.00;99831.56;5401401;26;20279;-71
2024/04/20 02:50:16;;;;;;;8.37;4.60;;;;;;;6.38;100.00;99826.03;5403522;26;20236;-70
2024/04/20 02:52:44;;;;;;;5.40;4.33;;;;;;;6.37;100.00;99832.34;5407431;26;20711;-70
2024/04/20 02:55:12;;;;;;;4.37;3.80;;;;;;;6.39;100.00;99836.19;5404254;26;20376;-70
2024/04/20 02:57:37;;;;;;;4.33;3.87;;;;;;;6.40;100.00;99836.94;5402588;26;20291;-70
2024/04/20 03:00:06;;;;;;;5.47;4.07;;;;;;;6.39;100.00;99838.03;5404466;26;20244;-72
2024/04/20 03:02:34;;;;;;;5.87;4.00;;;;;;;6.41;100.00;99841.09;5407081;26;21679;-71
2024/04/20 03:05:03;;;;;;;5.57;3.87;;;;;;;6.40;100.00;99840.34;5404879;26;20287;-70
2024/04/20 03:07:33;;;;;;;5.10;4.00;;;;;;;6.39;100.00;99846.69;5399930;26;20237;-70
2024/04/20 03:10:04;;;;;;;4.60;4.13;;;;;;;6.39;100.00;99848.53;5406604;26;20378;-71
2024/04/20 03:12:32;;;;;;;7.20;4.40;;;;;;;6.37;100.00;99850.72;5404885;26;20325;-70
2024/04/20 03:15:00;;;;;;;7.77;4.27;;;;;;;6.37;100.00;99856.72;5407013;26;20321;-71
2024/04/20 03:17:28;;;;;;;7.83;4.20;;;;;;;6.34;100.00;99856.56;5402060;26;20397;-71
2024/04/20 03:19:56;;;;;;;5.53;4.40;;;;;;;6.36;100.00;99852.56;5403243;26;20932;-70
2024/04/20 03:22:24;;;;;;;13.03;4.43;;;;;;;6.35;100.00;99858.09;5403458;26;20747;-71
2024/04/20 03:24:55;;;;;;;5.40;3.77;;;;;;;6.33;100.00;99863.66;5401996;26;20654;-71
2024/04/20 03:27:20;;;;;;;6.10;4.37;;;;;;;6.31;100.00;99863.22;5400873;26;20331;-70
2024/04/20 03:29:48;;;;;;;7.83;4.77;;;;;;;6.29;100.00;99878.50;5403168;26;20306;-71
2024/04/20 03:32:16;;;;;;;6.53;4.07;;;;;;;6.30;100.00;99881.88;5403894;26;20343;-70
2024/04/20 03:34:44;;;;;;;8.73;4.47;;;;;;;6.26;100.00;99868.63;5404906;26;20746;-70
2024/04/20 03:37:13;;;;;;;6.67;4.53;;;;;;;6.26;100.00;99886.22;5404887;26;20236;-71
2024/04/20 03:39:41;;;;;;;7.80;4.53;;;;;;;6.25;100.00;99890.69;5379389;26;20241;-70
2024/04/20 03:42:12;;;;;;;6.80;3.93;;;;;;;6.23;100.00;99898.09;5407456;26;20323;-71
2024/04/20 03:44:40;;;;;;;5.93;3.97;;;;;;;6.23;100.00;99899.94;5406616;26;20232;-70
2024/04/20 03:47:08;;;;;;;6.67;4.50;;;;;;;6.23;100.00;99900.72;5386600;26;20763;-70
2024/04/20 03:49:36;;;;;;;6.93;4.03;;;;;;;6.23;100.00;99900.72;5407336;26;20625;-70
2024/04/20 03:52:04;;;;;;;8.47;4.70;;;;;;;6.25;100.00;99910.88;5374479;26;20361;-70
2024/04/20 03:54:32;;;;;;;6.20;4.40;;;;;;;6.23;100.00;99908.59;5402778;26;20228;-71
2024/04/20 03:57:00;;;;;;;8.90;4.20;;;;;;;6.21;100.00;99915.22;5406891;26;20315;-70
2024/04/20 03:59:31;;;;;;;7.30;4.43;;;;;;;6.23;100.00;99926.16;5408799;26;20236;-70
2024/04/20 04:01:59;;;;;;;7.47;4.37;;;;;;;6.22;100.00;99922.75;5402505;26;20714;-70
2024/04/20 04:04:27;;;;;;;5.37;4.03;;;;;;;6.22;100.00;99929.88;5406549;26;20244;-70
2024/04/20 04:06:55;;;;;;;6.30;4.30;;;;;;;6.20;100.00;99927.56;5397919;26;20306;-70
2024/04/20 04:09:23;;;;;;;7.30;4.40;;;;;;;6.21;100.00;99930.97;5406878;26;20321;-71
2024/04/20 04:11:51;;;;;;;6.80;4.30;;;;;;;6.21;100.00;99930.97;5400919;26;20275;-71
2024/04/20 04:14:19;;;;;;;7.37;4.60;;;;;;;6.20;100.00;99945.13;5405730;26;20360;-71
2024/04/20 04:16:50;;;;;;;8.30;5.03;;;;;;;6.20;100.00;99947.75;5403968;26;20742;-71
2024/04/20 04:19:16;;;;;;;8.73;5.00;;;;;;;6.21;100.00;99944.06;5405828;26;20703;-70
2024/04/20 04:21:43;;;;;;;6.70;4.93;;;;;;;6.20;100.00;99952.97;5406154;26;20248;-70
2024/04/20 04:24:11;;;;;;;5.80;4.30;;;;;;;6.20;100.00;99958.22;5408195;26;21107;-70
2024/04/20 04:26:39;;;;;;;7.77;6.03;;;;;;;6.19;100.00;99960.09;5402972;26;20334;-70
2024/04/20 04:29:07;;;;;;;6.03;4.43;;;;;;;6.19;100.00;99972.41;5410286;26;20239;-70
2024/04/20 04:31:35;;;;;;;6.20;4.80;;;;;;;6.21;100.00;99975.53;5405341;26;20249;-71
2024/04/20 04:34:06;;;;;;;6.23;4.50;;;;;;;6.19;100.00;99986.31;5405140;26;20342;-71
2024/04/20 04:36:35;;;;;;;7.07;3.67;;;;;;;6.18;100.00;99989.22;5407296;26;20718;-71
2024/04/20 04:39:07;;;;;;;6.67;3.90;;;;;;;6.17;100.00;99998.94;5408121;26;20635;-71
2024/04/20 04:41:35;;;;;;;9.77;4.47;;;;;;;6.17;100.00;99998.19;5401198;26;20304;-71
2024/04/20 04:44:03;;;;;;;5.70;4.23;;;;;;;6.16;100.00;100001.88;5406038;26;20719;-70
2024/04/20 04:46:31;;;;;;;9.33;5.20;;;;;;;6.16;100.00;100009.75;5400787;26;20275;-71
2024/04/20 04:48:59;;;;;;;7.13;4.93;;;;;;;6.15;100.00;100008.97;5404071;26;20317;-71
2024/04/20 04:51:30;;;;;;;6.23;4.30;;;;;;;6.16;100.00;100025.47;5406138;26;20320;-71
2024/04/20 04:53:58;;;;;;;4.87;3.70;;;;;;;6.15;100.00;100023.91;5404094;26;20273;-71
2024/04/20 04:56:26;;;;;;;4.40;4.00;;;;;;;6.12;100.00;100021.94;5409366;26;20312;-71
2024/04/20 04:58:56;;;;;;;6.83;5.20;;;;;;;6.15;100.00;100023.91;5376216;26;20260;-71
2024/04/20 05:01:24;;;;;;;7.20;4.37;;;;;;;6.14;100.00;100027.63;5401729;26;20349;-71
2024/04/20 05:03:52;;;;;;;4.90;4.00;;;;;;;6.15;100.00;100035.19;5406824;26;20310;-70
2024/04/20 05:06:20;;;;;;;6.80;4.50;;;;;;;6.14;100.00;100038.09;5408153;26;20229;-71
2024/04/20 05:08:51;;;;;;;7.53;5.07;;;;;;;6.16;100.00;100046.44;5401652;26;20344;-71
2024/04/20 05:11:19;;;;;;;5.70;4.43;;;;;;;6.17;100.00;100042.75;5406251;26;20241;-71
2024/04/20 05:13:47;;;;;;;7.40;4.70;;;;;;;6.17;100.00;100053.97;5406798;26;20237;-71
2024/04/20 05:16:15;;;;;;;6.60;5.13;;;;;;;6.16;100.00;100064.81;5403599;26;20353;-71
2024/04/20 05:18:43;;;;;;;8.23;4.37;;;;;;;6.16;100.00;100070.03;5403437;26;20329;-72
2024/04/20 05:21:11;;;;;;;8.63;5.27;;;;;;;6.14;100.00;100066.94;5401445;26;20724;-72
2024/04/20 05:23:39;;;;;;;7.93;5.00;;;;;;;6.12;100.00;100077.72;5411440;26;20860;-72
2024/04/20 05:26:07;;;;;;;9.17;4.90;;;;;;;6.12;100.00;100088.22;5405154;26;20233;-72
2024/04/20 05:28:35;;;;;;;9.43;5.40;;;;;;;6.12;100.00;100088.22;5406803;26;20241;-72
2024/04/20 05:31:03;;;;;;;9.63;5.43;;;;;;;6.11;100.00;100093.78;5406880;26;20240;-72
2024/04/20 05:33:32;;;;;;;11.23;6.37;;;;;;;6.11;100.00;100097.16;5403189;26;20249;-72
2024/04/20 05:36:04;;;;;;;9.60;5.33;;;;;;;6.06;100.00;100099.94;5374986;26;20719;-73
2024/04/20 05:38:32;;;;;;;8.20;5.27;;;;;;;6.07;100.00;100103.34;5395250;26;20573;-73
2024/04/20 05:41:04;;;;;;;8.67;5.80;;;;;;;6.06;100.00;100117.53;5399363;26;20277;-73
2024/04/20 05:43:35;;;;;;;11.77;6.20;;;;;;;6.01;100.00;100126.28;5404496;26;20283;-72
2024/04/20 05:46:03;;;;;;;11.60;5.93;;;;;;;6.01;100.00;100128.16;5400895;26;20363;-72
2024/04/20 05:48:33;;;;;;;9.13;5.17;;;;;;;5.99;100.00;100132.91;5410652;26;20690;-72
2024/04/20 05:51:01;;;;;;;9.23;5.03;;;;;;;6.00;100.00;100142.34;5412292;26;20232;-72
2024/04/20 05:53:29;;;;;;;6.93;4.03;;;;;;;5.92;100.00;100143.84;5409250;26;20256;-73
2024/04/20 05:55:57;;;;;;;8.53;4.47;;;;;;;5.92;100.00;100151.72;5411471;26;20276;-72
2024/04/20 05:58:25;;;;;;;8.33;3.30;;;;;;;5.88;100.00;100163.88;5409732;26;20292;-73
2024/04/20 06:00:55;;;;;;;5.10;3.10;;;;;;;5.84;100.00;100160.31;5401361;26;20296;-74
2024/04/20 06:03:23;;;;;;;5.63;3.30;;;;;;;5.81;100.00;100176.63;5404492;26;20236;-72
2024/04/20 06:05:52;;;;;;;5.00;2.77;;;;;;;5.82;100.00;100177.41;5411330;26;20348;-73
2024/04/20 06:08:20;;;;;;;5.93;3.70;;;;;;;5.75;100.00;100193.53;5404750;26;20782;-74
2024/04/20 06:10:56;;;;;;;4.80;3.83;;;;;;;5.74;100.00;100188.59;5411040;26;20588;-72
2024/04/20 06:13:24;;;;;;;4.30;3.57;;;;;;;5.71;100.00;100197.84;5406132;26;20298;-74
2024/04/20 06:15:52;;;;;;;5.07;4.07;;;;;;;5.67;100.00;100198.72;5412913;26;20287;-73
2024/04/20 06:18:22;;;;;;;3.20;2.90;;;;;;;5.66;100.00;100215.53;5397852;26;20289;-74
2024/04/20 06:20:51;;;;;;;3.50;2.90;;;;;;;5.60;100.00;100219.34;5399776;26;20249;-73
2024/04/20 06:23:20;;;;;;;3.23;2.80;;;;;;;5.53;100.00;100216.38;5395265;26;20234;-72
2024/04/20 06:25:48;;;;;;;3.40;2.90;;;;;;;5.48;100.00;100225.13;5404437;26;20372;-73
2024/04/20 06:28:17;;;;;;;2.97;2.30;;;;;;;5.48;100.00;100229.59;5402232;26;20229;-73
2024/04/20 06:30:45;;;;;;;3.40;2.80;;;;;;;5.49;100.00;100241.63;5411703;26;20340;-73
2024/04/20 06:33:13;;;;;;;3.53;2.40;;;;;;;5.45;100.00;100238.06;5398411;26;20249;-73
2024/04/20 06:35:44;;;;;;;1.87;1.77;;;;;;;5.39;100.00;100252.34;5410612;26;20245;-73
2024/04/20 06:38:13;;;;;;;2.00;1.80;;;;;;;5.40;100.00;100265.16;5408222;26;20296;-72
2024/04/20 06:40:41;;;;;;;1.80;1.70;;;;;;;5.35;100.00;100273.13;5419211;26;20231;-73
2024/04/20 06:43:09;;;;;;;1.93;1.83;;;;;;;5.34;100.00;100268.19;5410682;26;20279;-72
2024/04/20 06:45:38;;;;;;;2.13;1.70;;;;;;;5.30;100.00;100272.47;5402221;26;20240;-73
2024/04/20 06:48:06;;;;;;;1.50;1.40;;;;;;;5.30;100.00;100298.63;5410436;26;20304;-73
2024/04/20 06:50:34;;;;;;;1.23;1.13;;;;;;;5.26;100.00;100292.44;5411568;26;20698;-74
2024/04/20 06:53:05;;;;;;;1.40;1.30;;;;;;;5.25;100.00;100288.28;5408516;26;20308;-74
2024/04/20 06:55:33;;;;;;;1.77;1.40;;;;;;;5.21;100.00;100306.44;5399576;26;20304;-72
2024/04/20 06:58:01;;;;;;;1.20;1.10;;;;;;;5.17;100.00;100312.53;5404051;26;20308;-73
2024/04/20 07:00:29;;;;;;;1.57;1.40;;;;;;;5.18;100.00;100317.47;5410869;26;20315;-73
2024/04/20 07:02:57;;;;;;;1.87;1.77;;;;;;;5.17;100.00;100336.09;5410822;26;20247;-73
2024/04/20 07:05:25;;;;;;;1.60;1.50;;;;;;;5.17;100.00;100331.63;5404874;26;20304;-73
2024/04/20 07:07:54;;;;;;;1.60;1.47;;;;;;;5.16;100.00;100345.78;5411581;26;20308;-73
2024/04/20 07:10:24;;;;;;;2.93;1.63;;;;;;;5.17;100.00;100354.41;5414544;26;20318;-73
2024/04/20 07:12:52;;;;;;;1.27;1.17;;;;;;;5.16;100.00;100351.03;5409724;26;20722;-72
2024/04/20 07:15:20;;;;;;;1.63;1.20;;;;;;;5.15;100.00;100352.09;5406664;26;20571;-73
2024/04/20 07:17:49;;;;;;;1.23;1.10;;;;;;;5.16;100.00;100369.34;5400560;26;20378;-72
2024/04/20 07:20:18;;;;;;;2.20;1.23;;;;;;;5.19;100.00;100373.97;5415373;26;20228;-72
2024/04/20 07:22:46;;;;;;;0.90;0.90;;;;;;;5.17;100.00;100383.19;5410179;26;20590;-73
2024/04/20 07:25:14;;;;;;;1.20;1.10;;;;;;;5.17;100.00;100391.84;5413044;26;20584;-73
2024/04/20 07:27:45;;;;;;;1.40;1.30;;;;;;;5.18;100.00;100397.84;5414266;26;20312;-74
2024/04/20 07:30:13;;;;;;;1.53;1.03;;;;;;;5.17;100.00;100402.31;5409980;26;21092;-72
2024/04/20 07:32:41;;;;;;;1.50;1.20;;;;;;;5.14;100.00;100415.97;5413516;26;20236;-73
2024/04/20 07:35:09;;;;;;;2.90;1.20;;;;;;;5.12;100.00;100415.50;5408076;26;20712;-72
2024/04/20 07:37:37;;;;;;;1.30;1.20;;;;;;;5.13;100.00;100421.50;5408895;26;20308;-73
2024/04/20 07:40:06;;;;;;;1.17;1.07;;;;;;;5.11;100.00;100437.50;5412007;26;20320;-72
2024/04/20 07:42:34;;;;;;;1.40;1.07;;;;;;;5.06;100.00;100442.84;5413972;26;20247;-72
2024/04/20 07:45:05;;;;;;;1.13;1.00;;;;;;;5.08;100.00;100445.16;5380666;26;20370;-72
2024/04/20 07:47:33;;;;;;;1.23;1.13;;;;;;;5.09;100.00;100444.09;5409852;26;20303;-72
2024/04/20 07:50:01;;;;;;;2.83;1.50;;;;;;;5.10;100.00;100462.13;5414163;26;20232;-74
2024/04/20 07:52:29;;;;;;;3.00;1.30;;;;;;;5.12;100.00;100462.59;5412431;26;20341;-72
2024/04/20 07:54:57;;;;;;;1.13;1.00;;;;;;;5.14;100.00;100475.41;5414504;26;20713;-74
2024/04/20 07:57:25;;;;;;;2.00;1.00;;;;;;;5.13;100.00;100464.16;5413739;26;20876;-72
2024/04/20 07:59:53;;;;;;;1.10;1.00;;;;;;;5.16;100.00;100473.25;5408329;26;20232;-72
2024/04/20 08:02:23;;;;;;;1.10;1.00;;;;;;;5.16;100.00;100478.50;5413440;26;20300;-72
2024/04/20 08:04:51;;;;;;;1.43;1.30;;;;;;;5.11;100.00;100492.47;5397778;26;20286;-72
2024/04/20 08:07:19;;;;;;;1.27;1.13;;;;;;;5.10;100.00;100495.38;5407313;26;20238;-72
2024/04/20 08:09:47;;;;;;;1.20;1.10;;;;;;;5.11;100.00;100502.16;5412582;26;20333;-72
2024/04/20 08:12:15;;;;;;;2.97;2.10;;;;;;;5.09;100.00;100506.91;5381841;26;20317;-73
2024/04/20 08:14:43;;;;;;;2.40;1.87;;;;;;;5.06;100.00;100523.97;5406734;26;20238;-72
2024/04/20 08:17:12;;;;;;;3.30;2.40;;;;;;;5.02;100.00;100530.06;5403613;26;20258;-72
2024/04/20 08:19:43;;;;;;;3.17;2.20;;;;;;;5.00;100.00;100529.56;5413226;26;20262;-72
2024/04/20 08:22:11;;;;;;;2.40;2.00;;;;;;;5.03;100.00;100542.09;5412381;26;20405;-73
2024/04/20 08:24:39;;;;;;;2.40;2.07;;;;;;;5.09;100.00;100546.94;5412265;26;20271;-73
2024/04/20 08:27:07;;;;;;;2.50;1.57;;;;;;;5.14;100.00;100548.69;5409706;26;20229;-72
2024/04/20 08:29:37;;;;;;;1.97;1.70;;;;;;;5.18;100.00;100553.03;5411000;26;20329;-72
2024/04/20 08:32:06;;;;;;;1.70;1.60;;;;;;;5.24;100.00;100557.09;5411289;26;20282;-72
2024/04/20 08:34:34;;;;;;;4.27;1.67;;;;;;;5.25;100.00;100569.16;5408254;26;20244;-71
2024/04/20 08:37:05;;;;;;;2.47;1.60;;;;;;;5.29;100.00;100583.19;5408488;26;20240;-71
2024/04/20 08:39:34;;;;;;;1.90;1.60;;;;;;;5.29;100.00;100577.97;5404107;26;20315;-71
2024/04/20 08:42:04;;;;;;;2.70;1.60;;;;;;;5.35;100.00;100589.13;5411588;26;20261;-71
2024/04/20 08:44:32;;;;;;;1.90;1.60;;;;;;;5.40;100.00;100596.88;5403089;26;20289;-72
2024/04/20 08:47:01;;;;;;;1.77;1.67;;;;;;;5.40;100.00;100600.28;5410129;26;20292;-72
2024/04/20 08:49:31;;;;;;;3.70;1.47;;;;;;;5.39;100.00;100605.81;5403092;26;20275;-73
2024/04/20 08:51:59;;;;;;;1.70;1.47;;;;;;;5.38;100.00;100612.13;5409111;26;20233;-73
2024/04/20 08:54:30;;;;;;;1.60;1.50;;;;;;;5.40;100.00;100623.84;5410110;26;20241;-74
2024/04/20 08:57:01;;;;;;;3.20;2.13;;;;;;;5.38;100.00;100633.81;5401318;26;20649;-71
2024/04/20 08:59:29;;;;;;;2.40;1.93;;;;;;;5.35;100.00;100631.00;5412688;26;20232;-71
2024/04/20 09:01:57;;;;;;;3.47;1.83;;;;;;;5.35;100.00;100639.66;5408044;26;20322;-72
2024/04/20 09:04:26;;;;;;;1.70;1.60;;;;;;;5.25;100.00;100652.94;5410968;26;20236;-72
2024/04/20 09:06:54;;;;;;;1.80;1.70;;;;;;;5.22;100.00;100645.63;5408399;26;20234;-72
2024/04/20 09:09:24;;;;;;;2.00;1.80;;;;;;;5.16;100.00;100666.94;5390305;26;20267;-71
2024/04/20 09:11:54;;;;;;;1.97;1.60;;;;;;;5.14;100.00;100667.22;5401986;26;20358;-73
2024/04/20 09:14:23;;;;;;;2.10;1.80;;;;;;;5.19;100.00;100671.63;5411156;26;20248;-72
2024/04/20 09:16:51;;;;;;;1.70;1.60;;;;;;;5.27;100.00;100668.31;5380130;26;20818;-71
2024/04/20 09:19:19;;;;;;;2.03;1.70;;;;;;;5.35;100.00;100684.16;5407161;26;20996;-72
2024/04/20 09:21:47;;;;;;;1.77;1.67;;;;;;;5.41;100.00;100685.63;5411000;26;20232;-71
2024/04/20 09:24:15;;;;;;;2.20;2.00;;;;;;;5.49;100.00;100692.06;5406374;26;20352;-71
2024/04/20 09:26:50;;;;;;;2.57;2.10;;;;;;;5.58;100.00;100703.38;5408500;26;20229;-73
2024/04/20 09:29:22;;;;;;;2.43;2.07;;;;;;;5.66;100.00;100708.75;5410237;26;20434;-72
2024/04/20 09:31:50;;;;;;;2.30;2.10;;;;;;;5.73;100.00;100713.59;5409155;26;20240;-71
2024/04/20 09:34:18;;;;;;;2.67;2.30;;;;;;;5.77;100.00;100712.75;5408861;26;20232;-72
2024/04/20 09:36:46;;;;;;;2.20;2.00;;;;;;;5.77;100.00;100712.75;5407805;26;20236;-73
2024/04/20 09:39:14;;;;;;;3.80;2.90;;;;;;;5.79;100.00;100718.47;5407720;26;20341;-73
2024/04/20 09:41:47;;;;;;;1.60;1.50;;;;;;;5.75;100.00;100729.81;5405100;26;20305;-72
2024/04/20 09:44:17;;;;;;;2.00;1.70;;;;;;;5.68;100.00;100743.28;5408372;26;20272;-71
2024/04/20 09:46:49;;;;;;;2.27;1.83;;;;;;;5.64;100.00;100752.03;5405000;26;20350;-74
2024/04/20 09:49:18;;;;;;;1.73;1.63;;;;;;;5.58;100.00;100746.09;5404724;26;20634;-72
2024/04/20 09:51:53;;;;;;;2.87;1.63;;;;;;;5.64;100.00;100754.66;5406026;26;20283;-72
2024/04/20 09:54:27;;;;;;;1.50;1.40;;;;;;;5.65;100.00;100766.69;5405973;26;20267;-72
2024/04/20 09:56:57;;;;;;;1.40;1.30;;;;;;;5.60;100.00;100767.53;5403481;26;20241;-72
2024/04/20 09:59:25;;;;;;;1.77;1.13;;;;;;;5.61;100.00;100765.69;5403916;26;20738;-71
2024/04/20 10:01:57;;;;;;;1.17;1.10;;;;;;;5.59;100.00;100763.34;5408750;26;20283;-72
2024/04/20 10:04:26;;;;;;;1.17;1.07;;;;;;;5.66;100.00;100778.69;5408311;26;21355;-73
2024/04/20 10:06:57;;;;;;;1.17;1.07;;;;;;;5.73;100.00;100772.03;5408036;26;20350;-71
2024/04/20 10:09:25;;;;;;;0.90;0.90;;;;;;;5.86;100.00;100775.78;5407457;26;20240;-71
2024/04/20 10:11:54;;;;;;;1.20;1.10;;;;;;;6.02;100.00;100788.28;5371102;26;20303;-72
2024/04/20 10:14:22;;;;;;;1.67;1.03;;;;;;;6.10;100.00;100787.63;5372725;26;20240;-71
2024/04/20 10:16:50;;;;;;;0.80;0.80;;;;;;;6.20;100.00;100795.31;5407150;26;20357;-71
2024/04/20 10:19:20;;;;;;;1.07;0.80;;;;;;;6.27;100.00;100795.69;5404515;26;20347;-74
2024/04/20 10:21:49;;;;;;;2.43;0.80;;;;;;;6.29;100.00;100805.91;5409345;26;20283;-71
2024/04/20 10:24:17;;;;;;;3.30;1.10;;;;;;;6.27;100.00;100808.81;5400445;26;20295;-71
2024/04/20 10:26:46;;;;;;;0.93;0.90;;;;;;;6.22;100.00;100816.75;5376384;26;20248;-71
2024/04/20 10:29:22;;;;;;;1.20;1.03;;;;;;;6.09;100.00;100819.38;5400912;26;20576;-72
2024/04/20 10:31:57;;;;;;;2.10;1.40;;;;;;;5.99;100.00;100815.09;5407345;26;20232;-72
2024/04/20 10:34:28;;;;;;;2.03;1.43;;;;;;;5.93;100.00;100829.38;5405915;26;20251;-73
2024/04/20 10:37:02;;;;;;;2.53;1.63;;;;;;;5.90;100.00;100823.94;5402025;26;20338;-72
2024/04/20 10:39:32;;;;;;;1.83;1.40;;;;;;;5.88;100.00;100833.91;5407173;26;20679;-72
2024/04/20 10:42:07;;;;;;;1.80;1.30;;;;;;;5.91;100.00;100834.09;5409178;26;20240;-72
2024/04/20 10:44:36;;;;;;;2.03;1.23;;;;;;;5.94;100.00;100825.66;5403926;26;20232;-72
2024/04/20 10:47:04;;;;;;;2.73;1.57;;;;;;;6.00;100.00;100831.63;5411196;26;20276;-72
2024/04/20 10:49:34;;;;;;;1.80;1.50;;;;;;;6.09;100.00;100828.03;5402634;26;20325;-72
2024/04/20 10:52:02;;;;;;;1.80;1.50;;;;;;;6.22;100.00;100844.84;5409227;26;20811;-74
2024/04/20 10:54:31;;;;;;;4.43;1.80;;;;;;;6.32;100.00;100837.56;5394392;26;20657;-73
2024/04/20 10:57:01;;;;;;;1.30;1.20;;;;;;;6.45;100.00;100851.75;5408245;26;20290;-71
2024/04/20 10:59:29;;;;;;;1.63;1.23;;;;;;;6.61;100.00;100855.63;5405685;26;20256;-71
2024/04/20 11:01:57;;;;;;;1.63;1.30;;;;;;;6.70;100.00;100867.00;5380116;26;20263;-71
2024/04/20 11:04:25;;;;;;;1.20;1.10;;;;;;;6.75;100.00;100864.28;5406172;26;20308;-72
2024/04/20 11:07:04;;;;;;;1.63;1.47;;;;;;;6.77;100.00;100855.06;5408109;26;20240;-71
2024/04/20 11:09:32;;;;;;;2.43;1.93;;;;;;;6.85;100.00;100856.22;5409017;26;20640;-71
2024/04/20 11:12:01;;;;;;;1.30;1.20;;;;;;;6.85;100.00;100867.50;5407444;26;20698;-72
2024/04/20 11:14:30;;;;;;;1.63;1.50;;;;;;;6.92;100.00;100872.34;5380259;26;20256;-71
2024/04/20 11:17:00;;;;;;;1.70;1.40;;;;;;;7.00;100.00;100869.03;5405312;26;20323;-72
2024/04/20 11:19:28;;;;;;;1.13;1.03;;;;;;;7.07;100.00;100879.91;5409356;26;20350;-71
2024/04/20 11:21:59;;;;;;;1.53;1.43;;;;;;;7.16;100.00;100878.13;5408557;26;20277;-71
2024/04/20 11:24:28;;;;;;;1.30;1.20;;;;;;;7.26;100.00;100872.69;5405201;26;20904;-72
2024/04/20 11:27:02;;;;;;;1.63;1.50;;;;;;;7.42;100.00;100887.81;5402597;26;20364;-71
2024/04/20 11:29:30;;;;;;;2.23;1.50;;;;;;;7.58;100.00;100885.59;5407404;26;20306;-74
2024/04/20 11:32:02;;;;;;;2.67;1.90;;;;;;;7.65;100.00;100891.22;5402637;26;20297;-71
2024/04/20 11:34:30;;;;;;;3.37;2.03;;;;;;;7.60;100.00;100897.38;5373957;26;20762;-74
2024/04/20 11:37:01;;;;;;;2.40;1.80;;;;;;;7.57;100.00;100907.72;5398588;26;20246;-72